createdAt,value
2023-04-19T00:01:01.129Z,100685.09
2023-04-19T00:03:29.896Z,100683.81
2023-04-19T00:05:59.347Z,100677.32
2023-04-19T00:08:25.875Z,100670.89
2023-04-19T00:10:52.385Z,100668.06
2023-04-19T00:13:18.963Z,100665.86
2023-04-19T00:15:45.570Z,100659.77
2023-04-19T00:18:12.069Z,100662.02
2023-04-19T00:20:38.817Z,100659.79
2023-04-19T00:23:05.292Z,100656.45
2023-04-19T00:25:33.937Z,100658.90
2023-04-19T00:28:00.340Z,100658.83
2023-04-19T00:30:26.908Z,100654.81
2023-04-19T00:32:53.390Z,100653.11
2023-04-19T00:35:19.882Z,100646.71
2023-04-19T00:37:46.484Z,100643.73
2023-04-19T00:40:12.909Z,100644.19
2023-04-19T00:42:39.251Z,100643.97
2023-04-19T00:45:06.442Z,100638.56
2023-04-19T00:47:33.320Z,100635.11
2023-04-19T00:49:59.892Z,100632.14
2023-04-19T00:52:26.881Z,100630.23
2023-04-19T00:54:53.312Z,100627.34
2023-04-19T00:57:21.165Z,100622.56
2023-04-19T00:59:47.707Z,100625.16
2023-04-19T01:02:14.312Z,100618.89
2023-04-19T01:04:40.979Z,100618.67
2023-04-19T01:07:08.424Z,100615.44
2023-04-19T01:09:34.869Z,100613.70
2023-04-19T01:12:03.820Z,100606.88
2023-04-19T01:14:30.236Z,100608.55
2023-04-19T01:16:57.327Z,100600.73
2023-04-19T01:19:23.598Z,100597.36
2023-04-19T01:21:52.059Z,100596.83
2023-04-19T01:24:18.433Z,100594.43
2023-04-19T01:26:44.958Z,100593.88
2023-04-19T01:29:11.449Z,100593.16
2023-04-19T01:31:37.988Z,100590.06
2023-04-19T01:34:04.953Z,100585.34
2023-04-19T01:36:31.493Z,100583.73
2023-04-19T01:38:58.032Z,100580.41
2023-04-19T01:41:26.610Z,100577.89
2023-04-19T01:43:53.086Z,100578.30
2023-04-19T01:46:19.671Z,100573.88
2023-04-19T01:48:45.968Z,100573.71
2023-04-19T01:51:12.347Z,100575.64
2023-04-19T01:53:38.638Z,100574.39
2023-04-19T01:56:05.292Z,100572.63
2023-04-19T01:58:31.632Z,100572.31
2023-04-19T02:00:58.222Z,100569.27
2023-04-19T02:03:24.658Z,100570.59
2023-04-19T02:05:51.077Z,100567.41
2023-04-19T02:08:17.547Z,100568.72
2023-04-19T02:10:43.848Z,100569.69
2023-04-19T02:13:10.417Z,100571.29
2023-04-19T02:15:36.815Z,100569.27
2023-04-19T02:18:06.213Z,100569.05
2023-04-19T02:20:32.800Z,100565.16
2023-04-19T02:22:59.108Z,100567.06
2023-04-19T02:25:25.544Z,100565.79
2023-04-19T02:27:51.861Z,100563.57
2023-04-19T02:30:18.256Z,100563.73
2023-04-19T02:32:47.517Z,100567.19
2023-04-19T02:35:13.867Z,100563.10
2023-04-19T02:37:40.311Z,100565.16
2023-04-19T02:40:07.206Z,100560.30
2023-04-19T02:42:33.762Z,100560.48
2023-04-19T02:45:00.183Z,100558.02
2023-04-19T02:47:26.770Z,100556.92
2023-04-19T02:49:53.203Z,100559.30
2023-04-19T02:52:20.459Z,100555.87
2023-04-19T02:54:47.661Z,100555.41
2023-04-19T02:57:14.077Z,100551.09
2023-04-19T02:59:40.530Z,100546.43
2023-04-19T03:02:06.976Z,100543.92
2023-04-19T03:04:33.842Z,100541.02
2023-04-19T03:07:00.416Z,100540.67
2023-04-19T03:09:26.765Z,100534.13
2023-04-19T03:11:53.086Z,100534.84
2023-04-19T03:14:19.574Z,100530.50
2023-04-19T03:16:45.976Z,100529.77
2023-04-19T03:19:12.439Z,100528.45
2023-04-19T03:21:38.826Z,100524.05
2023-04-19T03:24:05.535Z,100521.25
2023-04-19T03:26:31.845Z,100515.77
2023-04-19T03:28:58.166Z,100514.65
2023-04-19T03:31:25.253Z,100506.30
2023-04-19T03:33:51.619Z,100506.90
2023-04-19T03:36:18.109Z,100500.37
2023-04-19T03:38:44.390Z,100498.92
2023-04-19T03:41:31.004Z,100499.64
2023-04-19T03:44:00.537Z,100496.74
2023-04-19T03:46:30.956Z,100497.20
2023-04-19T03:48:57.489Z,100494.28
2023-04-19T03:51:23.819Z,100489.15
2023-04-19T03:53:50.314Z,100487.88
2023-04-19T03:56:16.837Z,100487.33
2023-04-19T03:58:43.175Z,100485.48
2023-04-19T04:01:20.956Z,100479.34
2023-04-19T04:03:48.015Z,100481.59
2023-04-19T04:06:16.057Z,100477.19
2023-04-19T04:08:42.767Z,100481.11
2023-04-19T04:11:09.176Z,100477.20
2023-04-19T04:13:35.651Z,100477.76
2023-04-19T04:16:04.173Z,100474.73
2023-04-19T04:18:32.206Z,100473.70
2023-04-19T04:20:58.523Z,100471.10
2023-04-19T04:23:25.482Z,100469.52
2023-04-19T04:26:03.662Z,100467.54
2023-04-19T04:28:31.676Z,100468.02
2023-04-19T04:30:59.798Z,100467.30
2023-04-19T04:33:27.893Z,100465.02
2023-04-19T04:35:55.882Z,100460.48
2023-04-19T04:38:25.104Z,100458.90
2023-04-19T04:40:54.253Z,100458.08
2023-04-19T04:43:22.210Z,100459.43
2023-04-19T04:45:48.641Z,100454.66
2023-04-19T04:48:15.498Z,100454.20
2023-04-19T04:50:41.910Z,100452.64
2023-04-19T04:53:10.098Z,100448.88
2023-04-19T04:55:37.404Z,100451.05
2023-04-19T04:58:06.762Z,100446.40
2023-04-19T05:00:33.898Z,100443.78
2023-04-19T05:03:01.787Z,100443.19
2023-04-19T05:05:31.542Z,100439.97
2023-04-19T05:07:58.172Z,100445.10
2023-04-19T05:10:24.818Z,100444.91
2023-04-19T05:12:51.219Z,100443.60
2023-04-19T05:15:17.765Z,100444.97
2023-04-19T05:17:44.286Z,100446.97
2023-04-19T05:20:11.454Z,100444.14
2023-04-19T05:22:37.935Z,100445.05
2023-04-19T05:25:05.241Z,100441.15
2023-04-19T05:27:31.681Z,100439.45
2023-04-19T05:29:58.125Z,100439.05
2023-04-19T05:32:24.573Z,100437.77
2023-04-19T05:34:53.326Z,100439.69
2023-04-19T05:37:19.587Z,100438.66
2023-04-19T05:39:45.892Z,100441.20
2023-04-19T05:42:12.275Z,100441.73
2023-04-19T05:44:38.561Z,100437.98
2023-04-19T05:47:05.097Z,100436.17
2023-04-19T05:49:31.564Z,100432.44
2023-04-19T05:51:58.065Z,100431.73
2023-04-19T05:54:24.537Z,100434.27
2023-04-19T05:56:51.014Z,100435.96
2023-04-19T05:59:17.426Z,100434.51
2023-04-19T06:01:44.035Z,100434.30
2023-04-19T06:04:11.009Z,100436.34
2023-04-19T06:06:37.750Z,100435.69
2023-04-19T06:09:04.455Z,100436.40
2023-04-19T06:11:38.830Z,100433.15
2023-04-19T06:14:05.919Z,100431.41
2023-04-19T06:16:32.496Z,100432.74
2023-04-19T06:18:58.905Z,100430.29
2023-04-19T06:21:26.478Z,100427.80
2023-04-19T06:23:52.972Z,100428.34
2023-04-19T06:26:22.276Z,100427.13
2023-04-19T06:28:48.745Z,100423.89
2023-04-19T06:31:15.270Z,100420.95
2023-04-19T06:34:07.483Z,100417.98
2023-04-19T06:37:24.753Z,100415.25
2023-04-19T06:43:48.810Z,100421.23
2023-04-19T06:46:58.653Z,100418.75
2023-04-19T06:57:02.580Z,100425.73
2023-04-19T08:28:27.909Z,100431.69
2023-04-19T08:31:53.992Z,100437.71
2023-04-19T08:35:24.098Z,100437.06
2023-04-19T08:37:52.550Z,100437.31
2023-04-19T08:40:20.110Z,100437.39
2023-04-19T08:42:47.096Z,100439.66
2023-04-19T08:45:27.530Z,100441.86
2023-04-19T08:48:01.282Z,100442.39
2023-04-19T08:50:36.071Z,100441.74
2023-04-19T08:53:24.137Z,100443.95
2023-04-19T08:56:12.257Z,100447.25
2023-04-19T09:01:22.934Z,100450.92
2023-04-19T09:04:07.398Z,100450.25
2023-04-19T09:06:45.337Z,100451.63
2023-04-19T09:09:56.020Z,100453.95
2023-04-19T09:12:31.433Z,100449.15
2023-04-19T09:15:01.865Z,100450.11
2023-04-19T09:23:26.881Z,100455.83
2023-04-19T09:26:22.166Z,100464.06
2023-04-19T09:29:09.493Z,100464.27
2023-04-19T09:31:51.478Z,100463.05
2023-04-19T09:34:24.918Z,100465.29
2023-04-19T09:37:11.067Z,100463.83
2023-04-19T09:39:48.087Z,100460.98
2023-04-19T09:42:30.748Z,100464.89
2023-04-19T09:46:09.872Z,100467.86
2023-04-19T09:48:23.956Z,100464.00
2023-04-19T09:51:02.278Z,100462.27
2023-04-19T09:53:34.865Z,100463.45
2023-04-19T09:56:06.469Z,100465.98
2023-04-19T09:58:50.842Z,100465.11
2023-04-19T10:01:26.088Z,100466.55
2023-04-19T10:04:01.159Z,100468.38
2023-04-19T10:07:29.288Z,100468.19
2023-04-19T10:10:19.985Z,100468.39
2023-04-19T10:16:01.705Z,100470.05
2023-04-19T10:18:52.669Z,100475.52
2023-04-19T10:21:23.956Z,100470.05
2023-04-19T10:23:53.054Z,100472.80
2023-04-19T10:26:23.387Z,100472.66
2023-04-19T10:28:56.762Z,100469.66
2023-04-19T10:31:34.427Z,100472.48
2023-04-19T10:34:04.456Z,100472.27
2023-04-19T10:36:33.002Z,100472.71
2023-04-19T10:39:04.353Z,100474.44
2023-04-19T10:48:01.188Z,100471.59
2023-04-19T10:50:32.811Z,100470.20
2023-04-19T10:53:39.386Z,100473.16
2023-04-19T10:56:10.692Z,100469.66
2023-04-19T10:59:00.905Z,100474.29
2023-04-19T11:01:43.585Z,100474.95
2023-04-19T11:04:14.398Z,100474.40
2023-04-19T11:06:52.360Z,100473.21
2023-04-19T11:09:54.323Z,100475.11
2023-04-19T11:12:23.537Z,100474.36
2023-04-19T11:14:59.828Z,100477.91
2023-04-19T11:17:32.669Z,100477.05
2023-04-19T11:23:23.240Z,100477.44
2023-04-19T11:25:53.997Z,100470.61
2023-04-19T11:28:26.600Z,100475.05
2023-04-19T11:30:55.681Z,100478.67
2023-04-19T11:33:29.089Z,100478.98
2023-04-19T11:35:57.887Z,100475.36
2023-04-19T11:38:31.632Z,100475.11
2023-04-19T11:41:04.510Z,100476.50
2023-04-19T11:43:33.980Z,100477.98
2023-04-19T11:46:10.485Z,100478.02
2023-04-19T11:48:39.493Z,100478.30
2023-04-19T11:51:10.976Z,100482.23
2023-04-19T11:53:40.239Z,100482.70
2023-04-19T11:56:09.730Z,100477.38
2023-04-19T11:59:06.538Z,100480.36
2023-04-19T12:01:34.542Z,100473.80
2023-04-19T12:04:05.170Z,100474.73
2023-04-19T12:06:33.240Z,100474.73
2023-04-19T12:09:08.763Z,100478.77
2023-04-19T12:11:50.395Z,100477.66
2023-04-19T12:14:22.292Z,100482.76
2023-04-19T12:17:14.710Z,100481.38
2023-04-19T12:19:44.867Z,100486.55
2023-04-19T12:22:28.303Z,100487.60
2023-04-19T12:25:06.078Z,100493.81
2023-04-19T12:27:36.371Z,100496.88
2023-04-19T12:30:04.854Z,100496.44
2023-04-19T12:32:34.080Z,100496.25
2023-04-19T12:35:04.826Z,100500.54
2023-04-19T12:40:36.799Z,100500.62
2023-04-19T12:43:08.828Z,100502.15
2023-04-19T12:45:36.774Z,100505.52
2023-04-19T12:48:04.788Z,100507.27
2023-04-19T12:50:32.789Z,100505.36
2023-04-19T12:53:09.314Z,100503.02
2023-04-19T12:55:37.211Z,100504.27
2023-04-19T12:58:07.213Z,100506.77
2023-04-19T13:00:35.293Z,100501.51
2023-04-19T13:03:03.700Z,100501.23
2023-04-19T13:05:31.715Z,100498.83
2023-04-19T13:08:00.289Z,100494.61
2023-04-19T13:10:28.227Z,100491.19
2023-04-19T13:13:07.378Z,100494.89
2023-04-19T13:16:22.226Z,100493.16
2023-04-19T13:19:05.051Z,100496.13
2023-04-19T13:26:31.187Z,100493.42
2023-04-19T13:29:17.524Z,100497.31
2023-04-19T13:31:56.705Z,100496.14
2023-04-19T13:34:43.024Z,100494.91
2023-04-19T13:37:15.801Z,100493.66
2023-04-19T13:39:43.850Z,100490.05
2023-04-19T13:42:14.340Z,100490.27
2023-04-19T13:44:42.375Z,100489.42
2023-04-19T13:47:12.622Z,100491.54
2023-04-19T13:49:41.508Z,100488.23
2023-04-19T13:52:13.365Z,100488.30
2023-04-19T13:54:41.357Z,100482.35
2023-04-19T13:57:09.846Z,100483.13
2023-04-19T13:59:37.882Z,100487.61
2023-04-19T14:02:06.346Z,100481.25
2023-04-19T14:04:34.299Z,100477.39
2023-04-19T14:07:02.309Z,100479.04
2023-04-19T14:09:30.614Z,100485.20
2023-04-19T14:12:03.741Z,100480.27
2023-04-19T14:14:35.383Z,100480.67
2023-04-19T14:17:03.682Z,100476.84
2023-04-19T14:19:32.086Z,100474.50
2023-04-19T14:24:07.938Z,100477.36
2023-04-19T14:26:35.964Z,100481.70
2023-04-19T14:29:05.619Z,100481.50
2023-04-19T14:31:32.884Z,100476.55
2023-04-19T14:34:00.692Z,100478.79
2023-04-19T14:36:30.854Z,100480.21
2023-04-19T14:38:57.384Z,100486.11
2023-04-19T14:41:31.334Z,100481.21
2023-04-19T14:43:58.162Z,100488.55
2023-04-19T14:48:21.404Z,100490.15
2023-04-19T14:51:44.789Z,100483.33
2023-04-19T14:55:04.577Z,100479.48
2023-04-19T14:57:33.196Z,100475.09
2023-04-19T15:00:02.248Z,100475.51
2023-04-19T15:02:30.539Z,100481.85
2023-04-19T15:05:02.131Z,100486.50
2023-04-19T15:07:36.711Z,100499.08
2023-04-19T15:10:07.290Z,100511.66
2023-04-19T15:12:35.158Z,100502.90
2023-04-19T15:15:04.431Z,100512.55
2023-04-19T15:17:33.355Z,100524.35
2023-04-19T15:20:03.884Z,100524.59
2023-04-19T15:23:08.617Z,100521.23
2023-04-19T15:26:03.709Z,100517.30
2023-04-19T15:28:36.245Z,100515.13
2023-04-19T15:31:06.846Z,100504.27
2023-04-19T15:33:37.252Z,100503.56
2023-04-19T15:47:13.814Z,100512.46
2023-04-19T15:49:41.956Z,100515.30
2023-04-19T15:52:12.285Z,100512.77
2023-04-19T15:55:08.610Z,100510.23
2023-04-19T15:57:39.291Z,100513.83
2023-04-19T16:02:46.099Z,100514.89
2023-04-19T16:05:16.307Z,100516.89
2023-04-19T16:07:46.682Z,100519.42
2023-04-19T16:10:41.196Z,100518.37
2023-04-19T16:13:09.277Z,100522.02
2023-04-19T16:16:34.824Z,100528.80
2023-04-19T16:20:13.313Z,100534.68
2023-04-19T16:23:54.053Z,100534.73
2023-04-19T16:27:34.730Z,100537.09
2023-04-19T16:42:04.282Z,100555.35
2023-04-19T16:45:17.027Z,100561.40
2023-04-19T16:48:43.880Z,100560.03
2023-04-19T16:52:10.928Z,100558.66
2023-04-19T16:55:43.041Z,100564.08
2023-04-19T16:59:22.034Z,100568.69
2023-04-19T17:01:50.666Z,100568.33
2023-04-19T17:04:19.255Z,100566.05
2023-04-19T17:06:54.965Z,100567.30
2023-04-19T17:09:26.755Z,100571.51
2023-04-19T17:11:57.450Z,100570.80
2023-04-19T17:14:25.691Z,100573.53
2023-04-19T17:16:53.627Z,100576.75
2023-04-19T17:19:21.449Z,100577.05
2023-04-19T17:21:49.401Z,100581.21
2023-04-19T17:24:18.145Z,100581.23
2023-04-19T17:26:46.158Z,100586.58
2023-04-19T17:29:14.001Z,100588.83
2023-04-19T17:31:42.099Z,100591.53
2023-04-19T17:34:10.404Z,100594.69
2023-04-19T17:36:38.284Z,100598.98
2023-04-19T17:39:07.868Z,100601.44
2023-04-19T17:41:35.671Z,100606.24
2023-04-19T17:44:03.591Z,100606.98
2023-04-19T17:46:31.590Z,100610.20
2023-04-19T17:49:06.856Z,100615.81
2023-04-19T17:51:34.775Z,100617.17
2023-04-19T17:54:06.198Z,100620.95
2023-04-19T17:56:33.995Z,100624.92
2023-04-19T17:59:03.954Z,100625.50
2023-04-19T18:01:37.245Z,100627.26
2023-04-19T18:04:06.678Z,100627.99
2023-04-19T18:06:34.705Z,100631.02
2023-04-19T18:09:03.170Z,100632.85
2023-04-19T18:11:30.933Z,100635.07
2023-04-19T18:13:59.290Z,100634.26
2023-04-19T18:16:30.365Z,100634.51
2023-04-19T18:18:59.366Z,100634.07
2023-04-19T18:21:27.301Z,100636.84
2023-04-19T18:23:57.652Z,100638.52
2023-04-19T18:26:42.492Z,100634.36
2023-04-19T18:29:12.508Z,100637.11
2023-04-19T18:31:40.556Z,100637.80
2023-04-19T18:34:11.198Z,100636.41
2023-04-19T18:36:43.025Z,100634.70
2023-04-19T18:39:11.280Z,100637.70
2023-04-19T18:41:39.520Z,100636.63
2023-04-19T18:44:34.785Z,100637.39
2023-04-19T18:53:30.874Z,100637.12
2023-04-19T18:55:58.769Z,100636.63
2023-04-19T18:58:28.408Z,100636.71
2023-04-19T19:00:56.990Z,100639.45
2023-04-19T19:05:55.851Z,100640.05
2023-04-19T19:08:24.052Z,100645.68
2023-04-19T19:13:22.692Z,100646.50
2023-04-19T19:15:50.561Z,100648.94
2023-04-19T19:18:18.446Z,100650.79
2023-04-19T19:20:46.372Z,100649.19
2023-04-19T19:23:14.895Z,100654.36
2023-04-19T19:25:43.078Z,100653.46
2023-04-19T19:28:11.334Z,100651.34
2023-04-19T19:30:42.783Z,100654.03
2023-04-19T19:33:11.507Z,100655.42
2023-04-19T19:35:39.975Z,100651.97
2023-04-19T19:38:08.350Z,100657.77
2023-04-19T19:40:40.850Z,100656.11
2023-04-19T19:43:24.163Z,100658.71
2023-04-19T19:45:51.983Z,100655.27
2023-04-19T19:48:19.890Z,100657.38
2023-04-19T19:51:17.404Z,100660.56
2023-04-19T19:53:37.088Z,100655.23
2023-04-19T19:56:12.894Z,100651.33
2023-04-19T19:58:50.222Z,100651.15
2023-04-19T20:01:22.503Z,100642.01
2023-04-19T20:03:51.236Z,100638.30
2023-04-19T20:08:57.427Z,100634.84
2023-04-19T20:11:25.680Z,100636.25
2023-04-19T20:13:53.415Z,100636.23
2023-04-19T20:16:21.608Z,100642.96
2023-04-19T20:18:49.485Z,100644.46
2023-04-19T20:21:19.713Z,100641.45
2023-04-19T20:23:50.111Z,100639.16
2023-04-19T20:26:18.336Z,100642.59
2023-04-19T20:28:46.105Z,100645.37
2023-04-19T20:31:14.514Z,100646.77
2023-04-19T20:33:42.268Z,100645.40
2023-04-19T20:36:10.210Z,100650.13
2023-04-19T20:38:40.308Z,100654.70
2023-04-19T20:41:09.141Z,100656.48
2023-04-19T20:43:39.396Z,100658.27
2023-04-19T20:46:08.681Z,100661.52
2023-04-19T20:48:36.987Z,100658.90
2023-04-19T20:51:08.827Z,100659.59
2023-04-19T20:53:36.755Z,100661.47
2023-04-19T21:00:45.104Z,100657.46
2023-04-19T21:03:13.605Z,100653.08
2023-04-19T21:05:41.695Z,100654.27
2023-04-19T21:08:13.401Z,100651.23
2023-04-19T21:10:41.397Z,100654.27
2023-04-19T21:13:09.820Z,100654.61
2023-04-19T21:15:37.886Z,100655.17
2023-04-19T21:18:07.081Z,100657.43
2023-04-19T21:20:35.791Z,100661.36
2023-04-19T21:23:04.337Z,100658.64
2023-04-19T21:25:32.342Z,100661.18
2023-04-19T21:28:00.052Z,100667.05
2023-04-19T21:30:27.853Z,100666.25
2023-04-19T21:32:55.852Z,100667.86
2023-04-19T21:39:43.807Z,100674.88
2023-04-19T21:42:11.561Z,100676.44
2023-04-19T21:44:39.414Z,100682.00
2023-04-19T21:47:07.911Z,100682.34
2023-04-19T21:49:36.578Z,100682.56
2023-04-19T21:52:05.580Z,100681.17
2023-04-19T21:54:34.760Z,100681.08
2023-04-19T21:57:03.248Z,100680.73
2023-04-19T21:59:31.153Z,100683.15
2023-04-19T22:01:59.129Z,100680.45
2023-04-19T22:04:31.072Z,100680.10
2023-04-19T22:07:03.057Z,100681.22
2023-04-19T22:09:31.177Z,100678.13
2023-04-19T22:12:00.974Z,100676.83
2023-04-19T22:18:49.797Z,100680.47
2023-04-19T22:21:17.740Z,100678.80
2023-04-19T22:23:45.988Z,100677.55
2023-04-19T22:26:13.729Z,100678.45
2023-04-19T22:28:41.536Z,100676.25
2023-04-19T22:31:09.357Z,100676.92
2023-04-19T22:33:37.283Z,100675.41
2023-04-19T22:36:06.900Z,100675.70
2023-04-19T22:38:34.597Z,100678.09
2023-04-19T22:41:02.690Z,100676.61
2023-04-19T22:43:30.551Z,100675.59
2023-04-19T22:45:58.370Z,100673.05
2023-04-19T22:48:28.049Z,100675.39
2023-04-19T22:50:56.854Z,100675.31
2023-04-19T22:53:24.572Z,100674.39
2023-04-19T22:55:52.671Z,100678.05
2023-04-19T22:58:20.469Z,100678.20
2023-04-19T23:00:48.287Z,100681.41
2023-04-19T23:03:16.689Z,100673.48
2023-04-19T23:05:44.627Z,100673.69
2023-04-19T23:08:12.922Z,100673.41
2023-04-19T23:10:42.389Z,100673.41
2023-04-19T23:13:10.608Z,100671.77
2023-04-19T23:15:39.369Z,100671.76
2023-04-19T23:18:07.484Z,100671.11
2023-04-19T23:20:35.793Z,100675.06
2023-04-19T23:23:03.633Z,100672.98
2023-04-19T23:25:31.531Z,100670.19
2023-04-19T23:28:00.540Z,100667.89
2023-04-19T23:30:29.613Z,100666.24
2023-04-19T23:32:58.668Z,100663.97
2023-04-19T23:35:26.525Z,100665.84
2023-04-19T23:37:54.384Z,100664.23
2023-04-19T23:40:24.371Z,100668.78
2023-04-19T23:42:52.114Z,100661.23
2023-04-19T23:45:19.973Z,100659.33
2023-04-19T23:47:47.760Z,100657.15
2023-04-19T23:50:16.042Z,100651.48
2023-04-19T23:52:43.731Z,100651.81
2023-04-19T23:55:12.616Z,100649.67
2023-04-19T23:57:40.618Z,100650.27
